createdAt,value
2016-07-28T00:00:36.619Z,99.99
2016-07-28T00:01:37.328Z,99.99
2016-07-28T00:02:36.589Z,99.99
2016-07-28T00:03:36.591Z,99.99
2016-07-28T00:04:36.611Z,99.99
2016-07-28T00:05:36.591Z,99.99
2016-07-28T00:06:36.579Z,99.99
2016-07-28T00:07:36.587Z,99.99
2016-07-28T00:08:36.571Z,99.99
2016-07-28T00:09:36.568Z,99.99
2016-07-28T00:10:36.571Z,99.99
2016-07-28T00:11:36.566Z,99.99
2016-07-28T00:12:36.555Z,99.99
2016-07-28T00:13:36.554Z,99.99
2016-07-28T00:14:36.559Z,99.99
2016-07-28T00:15:36.553Z,99.99
2016-07-28T00:16:36.549Z,99.99
2016-07-28T00:17:36.554Z,99.99
2016-07-28T00:18:36.551Z,99.99
2016-07-28T00:19:36.571Z,99.99
2016-07-28T00:20:36.572Z,99.99
2016-07-28T00:21:36.543Z,99.99
2016-07-28T00:22:36.524Z,99.99
2016-07-28T00:23:36.526Z,99.99
2016-07-28T00:24:36.549Z,99.99
2016-07-28T00:25:36.536Z,99.99
2016-07-28T00:26:36.523Z,99.99
2016-07-28T00:27:36.510Z,99.99
2016-07-28T00:28:36.510Z,99.99
2016-07-28T00:29:36.505Z,99.99
2016-07-28T00:30:36.504Z,99.99
2016-07-28T00:31:36.544Z,99.99
2016-07-28T00:32:36.515Z,99.99
2016-07-28T00:33:36.512Z,99.99
2016-07-28T00:34:36.514Z,99.99
2016-07-28T00:35:36.487Z,99.99
2016-07-28T00:36:36.488Z,99.99
2016-07-28T00:37:36.752Z,99.99
2016-07-28T00:38:36.469Z,99.99
2016-07-28T00:39:36.472Z,99.99
2016-07-28T00:40:36.489Z,99.99
2016-07-28T00:41:36.489Z,99.99
2016-07-28T00:42:36.469Z,99.99
2016-07-28T00:43:36.466Z,99.99
2016-07-28T00:44:36.451Z,99.99
2016-07-28T00:45:36.460Z,99.99
2016-07-28T00:46:36.451Z,99.99
2016-07-28T00:47:36.455Z,99.99
2016-07-28T00:48:36.442Z,99.99
2016-07-28T00:49:36.476Z,99.99
2016-07-28T00:50:36.440Z,99.99
2016-07-28T00:51:36.429Z,99.99
2016-07-28T00:52:36.429Z,99.99
2016-07-28T00:53:36.429Z,99.99
2016-07-28T00:54:36.448Z,99.99
2016-07-28T00:55:36.420Z,99.99
2016-07-28T00:56:36.420Z,99.99
2016-07-28T00:57:36.419Z,99.99
2016-07-28T00:58:36.428Z,99.99
2016-07-28T00:59:36.419Z,99.99
2016-07-28T01:00:36.422Z,99.99
2016-07-28T01:01:36.421Z,99.99
2016-07-28T01:02:36.393Z,99.99
2016-07-28T01:03:36.386Z,99.99
2016-07-28T01:04:36.407Z,99.99
2016-07-28T01:05:36.396Z,99.99
2016-07-28T01:06:36.387Z,99.99
2016-07-28T01:07:36.377Z,99.99
2016-07-28T01:08:36.406Z,99.99
2016-07-28T01:09:36.380Z,99.99
2016-07-28T01:10:36.370Z,99.99
2016-07-28T01:11:36.368Z,99.99
2016-07-28T01:12:36.365Z,99.99
2016-07-28T01:13:36.353Z,99.99
2016-07-28T01:14:36.354Z,99.99
2016-07-28T01:15:36.376Z,99.99
2016-07-28T01:16:36.379Z,99.99
2016-07-28T01:17:36.358Z,99.99
2016-07-28T01:18:36.354Z,99.99
2016-07-28T01:19:36.337Z,99.99
2016-07-28T01:20:36.344Z,99.99
2016-07-28T01:21:36.332Z,99.99
2016-07-28T01:22:36.321Z,99.99
2016-07-28T01:23:36.315Z,99.99
2016-07-28T01:24:36.323Z,99.99
2016-07-28T01:25:36.313Z,99.99
2016-07-28T01:26:36.339Z,99.99
2016-07-28T01:27:36.315Z,99.99
2016-07-28T01:28:36.313Z,99.99
2016-07-28T01:29:36.310Z,99.99
2016-07-28T01:30:36.301Z,99.99
2016-07-28T01:31:36.288Z,99.99
2016-07-28T01:32:36.286Z,99.99
2016-07-28T01:33:36.284Z,99.99
2016-07-28T01:34:36.325Z,99.99
2016-07-28T01:35:36.284Z,99.99
2016-07-28T01:36:36.278Z,99.99
2016-07-28T01:37:36.285Z,99.99
2016-07-28T01:38:36.297Z,99.99
2016-07-28T01:39:36.258Z,99.99
2016-07-28T01:40:36.266Z,99.99
2016-07-28T01:41:36.255Z,99.99
2016-07-28T01:42:36.255Z,99.99
2016-07-28T01:43:36.245Z,99.99
2016-07-28T01:44:36.247Z,99.99
2016-07-28T01:45:36.242Z,99.99
2016-07-28T01:46:36.246Z,99.99
2016-07-28T01:47:36.250Z,99.99
2016-07-28T01:48:36.268Z,99.99
2016-07-28T01:49:36.246Z,99.99
2016-07-28T01:50:36.226Z,99.99
2016-07-28T01:51:36.221Z,99.99
2016-07-28T01:52:36.221Z,99.99
2016-07-28T01:53:36.209Z,99.99
2016-07-28T01:54:36.217Z,99.99
2016-07-28T01:55:36.211Z,99.99
2016-07-28T01:56:36.200Z,99.99
2016-07-28T01:57:36.205Z,99.99
2016-07-28T01:58:36.212Z,99.99
2016-07-28T01:59:36.215Z,99.99
2016-07-28T02:00:36.195Z,99.99
2016-07-28T02:01:36.183Z,99.99
2016-07-28T02:02:36.181Z,99.99
2016-07-28T02:03:36.183Z,99.99
2016-07-28T02:04:36.195Z,99.99
2016-07-28T02:05:36.196Z,99.99
2016-07-28T02:06:36.164Z,99.99
2016-07-28T02:07:36.168Z,99.99
2016-07-28T02:08:36.163Z,99.99
2016-07-28T02:09:36.156Z,99.99
2016-07-28T02:10:36.155Z,99.99
2016-07-28T02:12:36.152Z,99.99
2016-07-28T02:13:36.148Z,99.99
2016-07-28T02:14:36.148Z,99.99
2016-07-28T02:15:36.137Z,99.99
2016-07-28T02:16:36.138Z,99.99
2016-07-28T02:17:36.137Z,99.99
2016-07-28T02:18:36.143Z,99.99
2016-07-28T02:19:36.120Z,99.99
2016-07-28T02:20:36.119Z,99.99
2016-07-28T02:21:36.122Z,99.99
2016-07-28T02:22:36.127Z,99.99
2016-07-28T02:23:36.110Z,99.99
2016-07-28T02:24:36.118Z,99.99
2016-07-28T02:25:36.108Z,99.99
2016-07-28T02:27:36.120Z,99.99
2016-07-28T02:28:36.098Z,99.99
2016-07-28T02:29:36.094Z,99.99
2016-07-28T02:30:36.091Z,99.99
2016-07-28T02:31:36.093Z,99.99
2016-07-28T02:32:36.084Z,99.99
2016-07-28T02:33:36.104Z,99.99
2016-07-28T02:34:36.141Z,99.99
2016-07-28T02:35:36.070Z,99.99
2016-07-28T02:36:36.084Z,99.99
2016-07-28T02:37:36.089Z,99.99
2016-07-28T02:38:36.065Z,99.99
2016-07-28T02:39:36.053Z,99.99
2016-07-28T02:40:36.071Z,99.99
2016-07-28T02:42:36.064Z,99.99
2016-07-28T02:43:36.050Z,99.99
2016-07-28T02:44:36.064Z,99.99
2016-07-28T02:45:36.056Z,99.99
2016-07-28T02:46:36.069Z,99.99
2016-07-28T02:47:36.063Z,99.99
2016-07-28T02:48:36.038Z,99.99
2016-07-28T02:49:36.050Z,99.99
2016-07-28T02:50:36.813Z,99.99
2016-07-28T02:51:36.026Z,99.99
2016-07-28T02:52:36.035Z,99.99
2016-07-28T02:53:36.018Z,99.99
2016-07-28T02:54:36.038Z,99.99
2016-07-28T02:55:36.014Z,99.99
2016-07-28T02:56:36.010Z,99.99
2016-07-28T02:57:36.011Z,99.99
2016-07-28T02:58:36.004Z,99.99
2016-07-28T02:59:36.088Z,99.99
2016-07-28T03:00:36.008Z,99.99
2016-07-28T03:01:36.009Z,99.99
2016-07-28T03:02:35.989Z,99.99
2016-07-28T03:03:35.994Z,99.99
2016-07-28T03:04:36.003Z,99.99
2016-07-28T03:05:35.989Z,99.99
2016-07-28T03:06:35.977Z,99.99
2016-07-28T03:07:35.978Z,99.99
2016-07-28T03:08:35.993Z,99.99
2016-07-28T03:09:35.965Z,99.99
2016-07-28T03:10:36.077Z,99.99
2016-07-28T03:11:36.078Z,99.99
2016-07-28T03:12:36.079Z,99.99
2016-07-28T03:13:35.958Z,99.99
2016-07-28T03:14:35.946Z,99.99
2016-07-28T03:15:35.948Z,99.99
2016-07-28T03:16:35.948Z,99.99
2016-07-28T03:17:35.950Z,99.99
2016-07-28T03:18:35.942Z,99.99
2016-07-28T03:19:35.945Z,99.99
2016-07-28T03:20:35.937Z,99.99
2016-07-28T03:21:35.925Z,99.99
2016-07-28T03:22:35.934Z,99.99
2016-07-28T03:23:35.930Z,99.99
2016-07-28T03:24:36.081Z,99.99
2016-07-28T03:25:35.912Z,99.99
2016-07-28T03:26:35.929Z,99.99
2016-07-28T03:27:36.633Z,99.99
2016-07-28T03:28:35.907Z,99.99
2016-07-28T03:29:35.902Z,99.99
2016-07-28T03:30:35.896Z,99.99
2016-07-28T03:31:36.600Z,99.99
2016-07-28T03:32:35.891Z,99.99
2016-07-28T03:33:35.899Z,99.99
2016-07-28T03:34:35.881Z,99.99
2016-07-28T03:35:35.879Z,99.99
2016-07-28T03:36:35.882Z,99.99
2016-07-28T03:37:35.870Z,99.99
2016-07-28T03:38:35.874Z,99.99
2016-07-28T03:39:35.874Z,99.99
2016-07-28T03:40:36.578Z,99.99
2016-07-28T03:41:35.861Z,99.99
2016-07-28T03:42:35.858Z,99.99
2016-07-28T03:43:35.857Z,99.99
2016-07-28T03:44:35.957Z,99.99
2016-07-28T03:45:35.849Z,99.99
2016-07-28T03:46:35.846Z,99.99
2016-07-28T03:47:35.833Z,99.99
2016-07-28T03:48:35.837Z,99.99
2016-07-28T03:49:35.837Z,99.99
2016-07-28T03:50:35.821Z,99.99
2016-07-28T03:51:35.816Z,99.99
2016-07-28T03:52:35.821Z,99.99
2016-07-28T03:53:35.818Z,99.99
2016-07-28T03:54:35.814Z,99.99
2016-07-28T03:55:35.813Z,99.99
2016-07-28T03:56:35.804Z,99.99
2016-07-28T03:57:35.928Z,99.99
2016-07-28T03:58:35.802Z,99.99
2016-07-28T03:59:35.917Z,99.99
2016-07-28T04:00:35.785Z,99.99
2016-07-28T04:01:35.807Z,99.99
2016-07-28T04:02:35.792Z,99.99
2016-07-28T04:03:35.783Z,99.99
2016-07-28T04:04:35.772Z,99.99
2016-07-28T04:05:35.778Z,99.99
2016-07-28T04:06:35.766Z,99.99
2016-07-28T04:07:35.764Z,99.99
2016-07-28T04:08:35.755Z,99.99
2016-07-28T04:09:35.761Z,99.99
2016-07-28T04:10:35.750Z,99.99
2016-07-28T04:11:35.757Z,99.99
2016-07-28T04:12:35.742Z,99.99
2016-07-28T04:13:35.750Z,99.99
2016-07-28T04:14:36.447Z,99.99
2016-07-28T04:15:35.749Z,99.99
2016-07-28T04:16:35.742Z,99.99
2016-07-28T04:17:35.730Z,99.99
2016-07-28T04:18:35.719Z,99.99
2016-07-28T04:19:35.728Z,99.99
2016-07-28T04:20:35.729Z,99.99
2016-07-28T04:21:35.717Z,99.99
2016-07-28T04:22:35.708Z,99.99
2016-07-28T04:23:35.703Z,99.99
2016-07-28T04:24:35.695Z,99.99
2016-07-28T04:25:35.715Z,99.99
2016-07-28T04:26:35.714Z,99.99
2016-07-28T04:27:35.689Z,99.99
2016-07-28T04:28:35.689Z,99.99
2016-07-28T04:29:35.688Z,99.99
2016-07-28T04:30:35.675Z,99.99
2016-07-28T04:31:35.681Z,99.99
2016-07-28T04:32:35.667Z,99.99
2016-07-28T04:33:35.675Z,99.99
2016-07-28T04:34:35.662Z,99.99
2016-07-28T04:35:35.676Z,99.99
2016-07-28T04:36:35.660Z,99.99
2016-07-28T04:37:35.651Z,99.99
2016-07-28T04:38:36.363Z,99.99
2016-07-28T04:39:35.760Z,99.99
2016-07-28T04:40:35.646Z,99.99
2016-07-28T04:41:35.642Z,99.99
2016-07-28T04:42:35.639Z,99.99
2016-07-28T04:43:35.638Z,99.99
2016-07-28T04:44:35.634Z,99.99
2016-07-28T04:45:35.634Z,99.99
2016-07-28T04:46:35.621Z,99.99
2016-07-28T04:47:35.638Z,99.99
2016-07-28T04:48:36.328Z,99.99
2016-07-28T04:49:35.608Z,99.99
2016-07-28T04:50:35.612Z,99.99
2016-07-28T04:51:35.601Z,99.99
2016-07-28T04:52:35.595Z,99.99
2016-07-28T04:53:35.602Z,99.99
2016-07-28T04:54:35.621Z,99.99
2016-07-28T04:55:35.585Z,99.99
2016-07-28T04:56:35.592Z,99.99
2016-07-28T04:57:35.574Z,99.99
2016-07-28T04:58:35.578Z,99.99
2016-07-28T04:59:35.578Z,99.99
2016-07-28T05:00:35.587Z,99.99
2016-07-28T05:01:35.565Z,99.99
2016-07-28T05:02:35.562Z,99.99
2016-07-28T05:03:35.568Z,99.99
2016-07-28T05:04:35.555Z,99.99
2016-07-28T05:05:35.556Z,99.99
2016-07-28T05:06:35.547Z,99.99
2016-07-28T05:07:35.547Z,99.99
2016-07-28T05:08:35.538Z,99.99
2016-07-28T05:09:35.542Z,99.99
2016-07-28T05:10:35.667Z,99.99
2016-07-28T05:11:35.538Z,99.99
2016-07-28T05:12:35.533Z,99.99
2016-07-28T05:13:35.518Z,99.99
2016-07-28T05:14:35.520Z,99.99
2016-07-28T05:15:35.516Z,99.99
2016-07-28T05:16:35.518Z,99.99
2016-07-28T05:17:35.513Z,99.99
2016-07-28T05:18:35.505Z,99.99
2016-07-28T05:19:35.497Z,99.99
2016-07-28T05:20:35.504Z,99.99
2016-07-28T05:21:35.530Z,99.99
2016-07-28T05:22:35.505Z,99.99
2016-07-28T05:23:35.487Z,99.99
2016-07-28T05:24:35.483Z,99.99
2016-07-28T05:25:35.481Z,99.99
2016-07-28T05:26:35.469Z,99.99
2016-07-28T05:27:35.484Z,99.99
2016-07-28T05:28:35.476Z,99.99
2016-07-28T05:29:35.465Z,99.99
2016-07-28T05:30:35.477Z,99.99
2016-07-28T05:31:35.463Z,99.99
2016-07-28T05:32:35.462Z,99.99
2016-07-28T05:33:35.460Z,99.99
2016-07-28T05:34:35.456Z,99.99
2016-07-28T05:35:35.448Z,99.99
2016-07-28T05:36:35.437Z,99.99
2016-07-28T05:37:35.445Z,99.99
2016-07-28T05:38:35.442Z,99.99
2016-07-28T05:39:35.438Z,99.99
2016-07-28T05:40:35.430Z,99.99
2016-07-28T05:41:35.439Z,99.99
2016-07-28T05:42:35.450Z,99.99
2016-07-28T05:43:35.415Z,99.99
2016-07-28T05:44:35.422Z,99.99
2016-07-28T05:45:35.740Z,99.99
2016-07-28T05:46:35.410Z,99.99
2016-07-28T05:47:35.407Z,99.99
2016-07-28T05:48:35.403Z,99.99
2016-07-28T05:49:35.402Z,99.99
2016-07-28T05:50:35.471Z,99.99
2016-07-28T05:51:35.402Z,99.99
2016-07-28T05:52:35.396Z,99.99
2016-07-28T05:53:35.383Z,99.99
2016-07-28T05:54:35.387Z,99.99
2016-07-28T05:55:35.388Z,99.99
2016-07-28T05:56:35.378Z,99.99
2016-07-28T05:58:35.387Z,99.99
2016-07-28T05:59:35.366Z,99.99
2016-07-28T06:00:35.373Z,99.99
2016-07-28T06:01:35.375Z,99.99
2016-07-28T06:02:35.378Z,99.99
2016-07-28T06:03:35.378Z,99.99
2016-07-28T06:04:35.367Z,99.99
2016-07-28T06:05:35.354Z,99.99
2016-07-28T06:06:35.358Z,99.49
2016-07-28T06:07:35.360Z,98.72
2016-07-28T06:08:35.351Z,95.26
2016-07-28T06:09:35.345Z,95.75
2016-07-28T06:10:35.347Z,95.55
2016-07-28T06:11:35.348Z,95.26
2016-07-28T06:13:35.337Z,96.08
2016-07-28T06:14:35.340Z,95.79
2016-07-28T06:15:35.345Z,96.08
2016-07-28T06:16:35.331Z,95.98
2016-07-28T06:17:35.336Z,95.84
2016-07-28T06:18:35.333Z,95.94
2016-07-28T06:19:35.326Z,95.94
2016-07-28T06:20:35.334Z,94.79
2016-07-28T06:21:35.325Z,95.51
2016-07-28T06:22:35.331Z,95.6
2016-07-28T06:23:35.322Z,95.22
2016-07-28T06:24:35.325Z,95.7
2016-07-28T06:25:35.319Z,96.37
2016-07-28T06:26:35.319Z,96.47
2016-07-28T06:28:35.315Z,97.33
2016-07-28T06:29:35.306Z,98.1
2016-07-28T06:30:35.311Z,96.08
2016-07-28T06:31:35.304Z,96.37
2016-07-28T06:32:35.301Z,96.84
2016-07-28T06:33:35.306Z,97.04
2016-07-28T06:34:35.315Z,95.51
2016-07-28T06:35:35.321Z,94.17
2016-07-28T06:36:35.323Z,93.3
2016-07-28T06:37:35.319Z,94.17
2016-07-28T06:38:35.309Z,94.74
2016-07-28T06:39:35.310Z,92.82
2016-07-28T06:40:35.307Z,94.26
2016-07-28T06:41:35.284Z,90.62
2016-07-28T06:43:35.293Z,88.27
2016-07-28T06:44:35.292Z,88.08
2016-07-28T06:45:35.445Z,89.51
2016-07-28T06:46:35.356Z,88.75
2016-07-28T06:47:35.286Z,88.17
2016-07-28T06:48:35.276Z,88.37
2016-07-28T06:49:35.272Z,88.27
2016-07-28T06:50:35.276Z,88.12
2016-07-28T06:51:35.984Z,88.35
2016-07-28T06:52:35.280Z,88.98
2016-07-28T06:53:35.274Z,89.94
2016-07-28T06:54:35.273Z,89.69
2016-07-28T06:55:35.269Z,90.6
2016-07-28T06:56:35.274Z,87.86
2016-07-28T06:58:35.271Z,83.23
2016-07-28T06:59:35.264Z,80.25
2016-07-28T07:00:35.259Z,80.96
2016-07-28T07:01:35.252Z,80.38
2016-07-28T07:02:35.266Z,80.23
2016-07-28T07:03:35.259Z,75.51
2016-07-28T07:04:35.251Z,74.62
2016-07-28T07:05:35.257Z,59.23
2016-07-28T07:06:35.257Z,57.54
2016-07-28T07:07:35.254Z,53.55
2016-07-28T07:08:35.260Z,53.79
2016-07-28T07:09:35.270Z,50.65
2016-07-28T07:10:35.258Z,57.39
2016-07-28T07:11:35.266Z,53.75
2016-07-28T07:12:35.266Z,53.71
2016-07-28T07:13:35.283Z,51.33
2016-07-28T07:14:35.259Z,48.44
2016-07-28T07:15:35.266Z,50.21
2016-07-28T07:16:35.276Z,45.86
2016-07-28T07:17:35.301Z,50.16
2016-07-28T07:18:35.292Z,48.14
2016-07-28T07:19:35.288Z,51.56
2016-07-28T07:20:35.287Z,46.39
2016-07-28T07:21:35.302Z,40.56
2016-07-28T07:22:35.292Z,43.41
2016-07-28T07:23:35.320Z,42.24
2016-07-28T07:24:35.314Z,43.43
2016-07-28T07:25:35.315Z,40.99
2016-07-28T07:26:35.326Z,36.51
2016-07-28T07:27:35.317Z,31.62
2016-07-28T07:28:35.336Z,33.3
2016-07-28T07:29:35.357Z,31.56
2016-07-28T07:30:35.350Z,31.08
2016-07-28T07:31:35.359Z,29.63
2016-07-28T07:32:35.354Z,29.32
2016-07-28T07:33:35.369Z,33.14
2016-07-28T07:34:35.373Z,32.66
2016-07-28T07:35:35.377Z,29.34
2016-07-28T07:36:35.389Z,33.26
2016-07-28T07:37:35.392Z,37.96
2016-07-28T07:38:35.413Z,36.8
2016-07-28T07:39:35.419Z,27.31
2016-07-28T07:40:35.423Z,27.98
2016-07-28T07:41:35.438Z,29.93
2016-07-28T07:42:35.429Z,31.98
2016-07-28T07:43:35.441Z,37.47
2016-07-28T07:44:35.452Z,37.87
2016-07-28T07:45:35.461Z,38.04
2016-07-28T07:46:35.468Z,35.21
2016-07-28T07:47:35.478Z,31.78
2016-07-28T07:48:35.488Z,34.14
2016-07-28T07:49:35.498Z,33.58
2016-07-28T07:50:35.506Z,34.38
2016-07-28T07:51:35.518Z,27.03
2016-07-28T07:52:35.545Z,30.94
2016-07-28T07:53:35.540Z,31.45
2016-07-28T07:54:35.550Z,32.14
2016-07-28T07:55:35.542Z,30.88
2016-07-28T07:56:35.562Z,29.8
2016-07-28T07:57:35.565Z,30.1
2016-07-28T07:58:35.577Z,31.17
2016-07-28T07:59:35.587Z,31.86
2016-07-28T08:00:35.596Z,29.21
2016-07-28T08:01:35.598Z,30.27
2016-07-28T08:02:35.613Z,27.04
2016-07-28T08:03:35.623Z,28.41
2016-07-28T08:04:35.628Z,29
2016-07-28T08:05:35.636Z,30.37
2016-07-28T08:06:35.633Z,30.57
2016-07-28T08:07:35.649Z,30.36
2016-07-28T08:08:35.671Z,31.14
2016-07-28T08:09:35.680Z,33.51
2016-07-28T08:10:35.680Z,30.37
2016-07-28T08:11:35.679Z,25.85
2016-07-28T08:12:35.694Z,26.23
2016-07-28T08:13:35.700Z,27.49
2016-07-28T08:14:35.720Z,26
2016-07-28T08:15:35.728Z,27.16
2016-07-28T08:16:35.752Z,29.28
2016-07-28T08:17:35.765Z,31.59
2016-07-28T08:18:35.744Z,34.89
2016-07-28T08:19:35.745Z,37.89
2016-07-28T08:20:35.750Z,36.12
2016-07-28T08:21:35.753Z,33.67
2016-07-28T08:22:35.771Z,36.87
2016-07-28T08:23:35.776Z,38.01
2016-07-28T08:24:35.787Z,40.81
2016-07-28T08:25:36.063Z,40.72
2016-07-28T08:26:35.821Z,40.79
2016-07-28T08:27:35.807Z,40.67
2016-07-28T08:28:35.809Z,40.58
2016-07-28T08:29:35.818Z,42.89
2016-07-28T08:30:35.865Z,41.63
2016-07-28T08:31:35.854Z,42.86
2016-07-28T08:32:35.851Z,44.42
2016-07-28T08:33:35.874Z,44.71
2016-07-28T08:34:35.881Z,44.49
2016-07-28T08:35:35.875Z,42.65
2016-07-28T08:36:35.880Z,43.41
2016-07-28T08:37:35.882Z,44.35
2016-07-28T08:38:35.886Z,45.3
2016-07-28T08:39:35.892Z,49.15
2016-07-28T08:40:35.896Z,54.17
2016-07-28T08:41:35.900Z,51.93
2016-07-28T08:42:35.908Z,52.61
2016-07-28T08:43:35.886Z,53.67
2016-07-28T08:44:35.916Z,49.51
2016-07-28T08:45:35.916Z,50.28
2016-07-28T08:46:35.915Z,51.25
2016-07-28T08:47:35.934Z,48.95
2016-07-28T08:48:36.268Z,46.63
2016-07-28T08:49:35.942Z,45.86
2016-07-28T08:50:35.935Z,46.61
2016-07-28T08:51:35.946Z,49.05
2016-07-28T08:52:35.937Z,53.67
2016-07-28T08:53:35.942Z,54.95
2016-07-28T08:54:35.932Z,54.27
2016-07-28T08:55:35.945Z,53.21
2016-07-28T08:56:35.947Z,52.92
2016-07-28T08:57:35.958Z,52.82
2016-07-28T08:58:35.957Z,50.02
2016-07-28T08:59:35.949Z,51.08
2016-07-28T09:00:35.961Z,51.47
2016-07-28T09:01:35.954Z,49.24
2016-07-28T09:02:35.970Z,46.92
2016-07-28T09:03:35.982Z,49.9
2016-07-28T09:04:35.968Z,52.61
2016-07-28T09:05:35.983Z,54.44
2016-07-28T09:06:35.988Z,52.7
2016-07-28T09:07:35.991Z,51.54
2016-07-28T09:08:35.989Z,49.9
2016-07-28T09:09:35.987Z,53.09
2016-07-28T09:10:35.992Z,50.67
2016-07-28T09:11:36.013Z,50.38
2016-07-28T09:12:36.001Z,55.7
2016-07-28T09:13:36.020Z,51.44
2016-07-28T09:14:35.994Z,52.31
2016-07-28T09:15:35.996Z,52.41
2016-07-28T09:16:36.029Z,50.67
2016-07-28T09:17:36.007Z,51.64
2016-07-28T09:18:36.025Z,51.93
2016-07-28T09:19:36.022Z,53.09
2016-07-28T09:20:36.014Z,54.15
2016-07-28T09:21:36.029Z,53.77
2016-07-28T09:22:36.035Z,54.05
2016-07-28T09:23:36.020Z,54.13
2016-07-28T09:24:36.046Z,54.41
2016-07-28T09:25:36.040Z,52.67
2016-07-28T09:26:36.042Z,49
2016-07-28T09:27:36.046Z,48.81
2016-07-28T09:28:36.038Z,47
2016-07-28T09:29:36.042Z,46.8
2016-07-28T09:30:36.062Z,47.19
2016-07-28T09:31:36.072Z,49.99
2016-07-28T09:32:36.063Z,52.89
2016-07-28T09:33:36.069Z,51.54
2016-07-28T09:34:36.065Z,52.51
2016-07-28T09:35:36.077Z,54.95
2016-07-28T09:36:36.072Z,53.5
2016-07-28T09:37:36.083Z,51.56
2016-07-28T09:38:36.080Z,50.12
2016-07-28T09:39:36.099Z,47.6
2016-07-28T09:40:36.077Z,47.89
2016-07-28T09:41:36.083Z,50.89
2016-07-28T09:42:36.097Z,52.44
2016-07-28T09:43:36.084Z,51.37
2016-07-28T09:44:36.105Z,50.02
2016-07-28T09:45:36.089Z,51.37
2016-07-28T09:46:36.101Z,50.12
2016-07-28T09:47:36.090Z,51.56
2016-07-28T09:48:36.105Z,50.31
2016-07-28T09:49:36.105Z,54.57
2016-07-28T09:50:36.104Z,55.82
2016-07-28T09:51:36.120Z,51.18
2016-07-28T09:52:36.118Z,50.82
2016-07-28T09:53:36.114Z,51.88
2016-07-28T09:54:36.113Z,45.08
2016-07-28T09:55:36.122Z,47.21
2016-07-28T09:56:36.138Z,47.41
2016-07-28T09:57:36.148Z,48.86
2016-07-28T09:58:36.147Z,49.15
2016-07-28T09:59:36.146Z,50.12
2016-07-28T10:00:36.142Z,51.59
2016-07-28T10:01:36.141Z,49.07
2016-07-28T10:02:36.130Z,49.07
2016-07-28T10:03:36.878Z,51.78
2016-07-28T10:04:36.159Z,52.2
2016-07-28T10:05:36.173Z,52.58
2016-07-28T10:06:36.168Z,52.78
2016-07-28T10:07:36.158Z,53.26
2016-07-28T10:08:36.169Z,52.49
2016-07-28T10:09:36.157Z,51.25
2016-07-28T10:10:36.884Z,51.86
2016-07-28T10:11:36.189Z,48.18
2016-07-28T10:12:36.189Z,50.02
2016-07-28T10:13:36.203Z,46.07
2016-07-28T10:14:36.196Z,45.17
2016-07-28T10:15:36.205Z,45
2016-07-28T10:16:36.194Z,47.13
2016-07-28T10:17:36.203Z,46.75
2016-07-28T10:18:36.216Z,47.52
2016-07-28T10:19:36.232Z,46.24
2016-07-28T10:20:36.195Z,46.33
2016-07-28T10:21:36.199Z,46.04
2016-07-28T10:22:36.227Z,46.62
2016-07-28T10:23:36.244Z,43.6
2016-07-28T10:24:36.234Z,44.27
2016-07-28T10:25:36.253Z,42.14
2016-07-28T10:26:36.247Z,47.28
2016-07-28T10:27:36.243Z,48.74
2016-07-28T10:28:36.238Z,43.21
2016-07-28T10:29:36.252Z,43.02
2016-07-28T10:30:36.254Z,46.39
2016-07-28T10:31:36.272Z,43.48
2016-07-28T10:32:36.251Z,44.06
2016-07-28T10:33:36.334Z,44.64
2016-07-28T10:34:36.296Z,46.09
2016-07-28T10:35:36.301Z,50.26
2016-07-28T10:36:36.315Z,50.16
2016-07-28T10:37:36.302Z,43.7
2016-07-28T10:38:36.300Z,44.26
2016-07-28T10:39:36.311Z,43
2016-07-28T10:40:36.327Z,45.71
2016-07-28T10:41:36.323Z,45.9
2016-07-28T10:42:37.038Z,45.61
2016-07-28T10:43:36.314Z,48.9
2016-07-28T10:44:36.324Z,49
2016-07-28T10:45:36.358Z,48.9
2016-07-28T10:46:36.335Z,47.62
2016-07-28T10:47:36.363Z,51.98
2016-07-28T10:48:36.358Z,49.92
2016-07-28T10:49:36.348Z,45.3
2016-07-28T10:50:36.371Z,44.7
2016-07-28T10:51:36.351Z,44.7
2016-07-28T10:52:36.351Z,44.6
2016-07-28T10:53:36.358Z,45.86
2016-07-28T10:54:36.367Z,46.44
2016-07-28T10:55:36.376Z,46.34
2016-07-28T10:56:36.366Z,47.21
2016-07-28T10:57:36.375Z,47.96
2016-07-28T10:59:36.381Z,48.54
2016-07-28T11:00:36.383Z,50.96
2016-07-28T11:01:36.386Z,51.9
2016-07-28T11:02:36.392Z,51.42
2016-07-28T11:03:36.410Z,49.55
2016-07-28T11:04:36.403Z,51.01
2016-07-28T11:05:37.378Z,50.81
2016-07-28T11:06:36.406Z,51.56
2016-07-28T11:07:36.662Z,53.11
2016-07-28T11:08:36.427Z,55.81
2016-07-28T11:09:36.443Z,56.1
2016-07-28T11:10:36.412Z,54.75
2016-07-28T11:11:36.438Z,51.85
2016-07-28T11:12:36.429Z,52.14
2016-07-28T11:13:36.438Z,54.53
2016-07-28T11:14:36.416Z,56
2016-07-28T11:15:36.440Z,54.94
2016-07-28T11:16:36.442Z,55.52
2016-07-28T11:17:36.438Z,56.68
2016-07-28T11:18:36.438Z,52.91
2016-07-28T11:19:36.468Z,52.72
2016-07-28T11:20:36.448Z,54.75
2016-07-28T11:21:36.449Z,56.2
2016-07-28T11:22:36.455Z,57.64
2016-07-28T11:23:36.452Z,57.06
2016-07-28T11:24:36.456Z,56.39
2016-07-28T11:25:36.460Z,55.71
2016-07-28T11:26:36.492Z,57.06
2016-07-28T11:27:36.469Z,57.54
2016-07-28T11:29:36.467Z,55.83
2016-07-28T11:30:36.519Z,55.55
2016-07-28T11:31:36.466Z,55.65
2016-07-28T11:32:36.472Z,55.47
2016-07-28T11:33:36.483Z,52.87
2016-07-28T11:34:36.493Z,49.7
2016-07-28T11:35:36.496Z,50.55
2016-07-28T11:36:36.488Z,50.38
2016-07-28T11:37:36.494Z,49.7
2016-07-28T11:38:36.490Z,49.32
2016-07-28T11:39:36.499Z,50.18
2016-07-28T11:40:36.513Z,49.6
2016-07-28T11:41:36.509Z,50.18
2016-07-28T11:42:36.503Z,50.31
2016-07-28T11:44:36.500Z,49.07
2016-07-28T11:45:36.513Z,50.72
2016-07-28T11:46:36.520Z,51.1
2016-07-28T11:47:36.514Z,52.17
2016-07-28T11:48:36.518Z,52.95
2016-07-28T11:49:36.541Z,52.66
2016-07-28T11:50:36.528Z,52.73
2016-07-28T11:51:36.525Z,51.86
2016-07-28T11:52:36.534Z,52.34
2016-07-28T11:53:36.536Z,53.31
2016-07-28T11:54:36.553Z,56.11
2016-07-28T11:55:36.545Z,56.3
2016-07-28T11:56:36.563Z,55.79
2016-07-28T11:57:36.546Z,54.83
2016-07-28T11:58:36.584Z,53.77
2016-07-28T11:59:36.542Z,55.21
2016-07-28T12:00:36.571Z,53.38
2016-07-28T12:01:36.572Z,54.9
2016-07-28T12:02:36.563Z,56.54
2016-07-28T12:03:36.571Z,54.51
2016-07-28T12:04:36.588Z,53.86
2016-07-28T12:05:36.575Z,49.41
2016-07-28T12:06:36.585Z,52.12
2016-07-28T12:07:36.569Z,51.54
2016-07-28T12:08:36.601Z,51.64
2016-07-28T12:09:36.609Z,53.86
2016-07-28T12:10:36.585Z,56.47
2016-07-28T12:11:36.594Z,58.4
2016-07-28T12:12:36.654Z,55.7
2016-07-28T12:13:36.618Z,56.76
2016-07-28T12:14:36.615Z,53.86
2016-07-28T12:15:36.619Z,50.76
2016-07-28T12:16:36.613Z,51.23
2016-07-28T12:17:36.604Z,50.74
2016-07-28T12:18:36.621Z,51.42
2016-07-28T12:19:36.620Z,50.26
2016-07-28T12:20:36.631Z,51.32
2016-07-28T12:21:36.628Z,51.9
2016-07-28T12:22:36.691Z,51.9
2016-07-28T12:23:36.641Z,52.09
2016-07-28T12:24:36.889Z,53.35
2016-07-28T12:26:36.648Z,54.44
2016-07-28T12:27:36.639Z,50.57
2016-07-28T12:28:36.649Z,49.99
2016-07-28T12:29:36.633Z,50.48
2016-07-28T12:30:36.650Z,50.5
2016-07-28T12:31:36.648Z,49.92
2016-07-28T12:32:36.646Z,52.63
2016-07-28T12:33:36.643Z,54.75
2016-07-28T12:34:36.649Z,52.63
2016-07-28T12:35:36.652Z,47.43
2016-07-28T12:36:36.662Z,47.52
2016-07-28T12:37:36.660Z,47.43
2016-07-28T12:38:36.666Z,50.07
2016-07-28T12:39:36.659Z,48.61
2016-07-28T12:40:36.686Z,50.43
2016-07-28T12:41:36.713Z,51.59
2016-07-28T12:42:36.719Z,50.94
2016-07-28T12:43:36.710Z,47.16
2016-07-28T12:44:36.718Z,47.74
2016-07-28T12:45:36.701Z,46.19
2016-07-28T12:46:36.711Z,47.94
2016-07-28T12:47:37.414Z,46.97
2016-07-28T12:48:36.778Z,47.16
2016-07-28T12:49:36.717Z,47.52
2016-07-28T12:50:36.737Z,46.97
2016-07-28T12:51:36.743Z,47.55
2016-07-28T12:52:36.782Z,47.06
2016-07-28T12:53:36.746Z,47.74
2016-07-28T12:54:36.746Z,48.32
2016-07-28T12:55:36.728Z,47.45
2016-07-28T12:56:36.747Z,47.36
2016-07-28T12:57:36.738Z,48.71
2016-07-28T12:58:36.774Z,50.26
2016-07-28T12:59:36.756Z,47.26
2016-07-28T13:00:36.767Z,48.03
2016-07-28T13:01:36.762Z,50.94
2016-07-28T13:02:36.756Z,50.84
2016-07-28T13:03:36.796Z,49.49
2016-07-28T13:04:36.781Z,49.19
2016-07-28T13:05:36.788Z,47.16
2016-07-28T13:06:37.985Z,46.48